<?xml version="1.0" encoding="UTF-8" standalone="no" ?>
<gpx xmlns="http://www.topografix.com/GPX/1/1" xmlns:xsi="http://www.w3.org/2001/XMLSchema-instance" xsi:schemaLocation="http://www.topografix.com/GPX/1/1 http://www.topografix.com/GPX/1/1/gpx.xsd" version="1.1" creator="VisuGPX - https://www.visugpx.com">
  <metadata>
    <name>Théizé Cyril</name>
    <desc><![CDATA[Les dérailleurs lozanne]]></desc>
  </metadata>
  <trk>
    <name><![CDATA[Cyrll Theize:48:39 PM]]></name>
    <trkseg>
      <trkpt lat="45.94132" lon="4.61751">
        <ele>399.57</ele>
        <time>2011-10-22T12:07:05Z</time>
      </trkpt>
      <trkpt lat="45.93971" lon="4.61615">
        <ele>461.09</ele>
        <time>2011-10-22T12:09:58Z</time>
      </trkpt>
      <trkpt lat="45.93992" lon="4.61666">
        <ele>465.42</ele>
        <time>2011-10-22T12:10:23Z</time>
      </trkpt>
      <trkpt lat="45.94025" lon="4.61725">
        <ele>469.26</ele>
        <time>2011-10-22T12:10:48Z</time>
      </trkpt>
      <trkpt lat="45.94055" lon="4.61779">
        <ele>470.7</ele>
        <time>2011-10-22T12:11:09Z</time>
      </trkpt>
      <trkpt lat="45.94101" lon="4.61808">
        <ele>467.34</ele>
        <time>2011-10-22T12:11:21Z</time>
      </trkpt>
      <trkpt lat="45.94137" lon="4.61784">
        <ele>469.74</ele>
        <time>2011-10-22T12:11:34Z</time>
      </trkpt>
      <trkpt lat="45.94182" lon="4.61787">
        <ele>469.74</ele>
        <time>2011-10-22T12:11:47Z</time>
      </trkpt>
      <trkpt lat="45.94229" lon="4.61795">
        <ele>469.74</ele>
        <time>2011-10-22T12:11:59Z</time>
      </trkpt>
      <trkpt lat="45.94275" lon="4.618">
        <ele>470.22</ele>
        <time>2011-10-22T12:12:11Z</time>
      </trkpt>
      <trkpt lat="45.94311" lon="4.61783">
        <ele>473.11</ele>
        <time>2011-10-22T12:12:26Z</time>
      </trkpt>
      <trkpt lat="45.94339" lon="4.61744">
        <ele>478.39</ele>
        <time>2011-10-22T12:12:48Z</time>
      </trkpt>
      <trkpt lat="45.94388" lon="4.61738">
        <ele>483.68</ele>
        <time>2011-10-22T12:13:12Z</time>
      </trkpt>
      <trkpt lat="45.94439" lon="4.61743">
        <ele>488.01</ele>
        <time>2011-10-22T12:13:38Z</time>
      </trkpt>
      <trkpt lat="45.945" lon="4.61731">
        <ele>488.01</ele>
        <time>2011-10-22T12:13:59Z</time>
      </trkpt>
      <trkpt lat="45.94547" lon="4.61706">
        <ele>485.12</ele>
        <time>2011-10-22T12:14:09Z</time>
      </trkpt>
      <trkpt lat="45.94595" lon="4.61683">
        <ele>482.24</ele>
        <time>2011-10-22T12:14:17Z</time>
      </trkpt>
      <trkpt lat="45.94637" lon="4.61657">
        <ele>483.68</ele>
        <time>2011-10-22T12:14:29Z</time>
      </trkpt>
      <trkpt lat="45.94686" lon="4.61609">
        <ele>490.89</ele>
        <time>2011-10-22T12:15:03Z</time>
      </trkpt>
      <trkpt lat="45.94726" lon="4.61557">
        <ele>495.22</ele>
        <time>2011-10-22T12:15:29Z</time>
      </trkpt>
      <trkpt lat="45.94761" lon="4.61493">
        <ele>501.46</ele>
        <time>2011-10-22T12:16:04Z</time>
      </trkpt>
      <trkpt lat="45.94842" lon="4.61462">
        <ele>509.64</ele>
        <time>2011-10-22T12:16:42Z</time>
      </trkpt>
      <trkpt lat="45.94848" lon="4.61399">
        <ele>516.85</ele>
        <time>2011-10-22T12:17:17Z</time>
      </trkpt>
      <trkpt lat="45.94832" lon="4.61335">
        <ele>526.46</ele>
        <time>2011-10-22T12:17:57Z</time>
      </trkpt>
      <trkpt lat="45.94791" lon="4.61313">
        <ele>534.15</ele>
        <time>2011-10-22T12:18:32Z</time>
      </trkpt>
      <trkpt lat="45.94746" lon="4.61279">
        <ele>542.32</ele>
        <time>2011-10-22T12:19:11Z</time>
      </trkpt>
      <trkpt lat="45.94765" lon="4.61213">
        <ele>549.05</ele>
        <time>2011-10-22T12:19:46Z</time>
      </trkpt>
      <trkpt lat="45.94797" lon="4.61153">
        <ele>557.22</ele>
        <time>2011-10-22T12:20:22Z</time>
      </trkpt>
      <trkpt lat="45.94817" lon="4.61087">
        <ele>564.91</ele>
        <time>2011-10-22T12:20:57Z</time>
      </trkpt>
      <trkpt lat="45.94839" lon="4.61028">
        <ele>572.6</ele>
        <time>2011-10-22T12:21:31Z</time>
      </trkpt>
      <trkpt lat="45.94862" lon="4.60968">
        <ele>578.85</ele>
        <time>2011-10-22T12:22:01Z</time>
      </trkpt>
      <trkpt lat="45.94875" lon="4.60903">
        <ele>584.14</ele>
        <time>2011-10-22T12:22:28Z</time>
      </trkpt>
      <trkpt lat="45.94865" lon="4.60835">
        <ele>585.58</ele>
        <time>2011-10-22T12:22:48Z</time>
      </trkpt>
      <trkpt lat="45.94848" lon="4.60771">
        <ele>586.06</ele>
        <time>2011-10-22T12:22:59Z</time>
      </trkpt>
      <trkpt lat="45.94831" lon="4.60709">
        <ele>586.54</ele>
        <time>2011-10-22T12:23:12Z</time>
      </trkpt>
      <trkpt lat="45.94813" lon="4.60648">
        <ele>585.58</ele>
        <time>2011-10-22T12:23:22Z</time>
      </trkpt>
      <trkpt lat="45.94821" lon="4.60585">
        <ele>588.95</ele>
        <time>2011-10-22T12:23:34Z</time>
      </trkpt>
      <trkpt lat="45.94845" lon="4.60527">
        <ele>586.54</ele>
        <time>2011-10-22T12:23:45Z</time>
      </trkpt>
      <trkpt lat="45.94876" lon="4.60478">
        <ele>585.1</ele>
        <time>2011-10-22T12:23:54Z</time>
      </trkpt>
      <trkpt lat="45.94908" lon="4.6043">
        <ele>583.66</ele>
        <time>2011-10-22T12:24:04Z</time>
      </trkpt>
      <trkpt lat="45.94941" lon="4.60381">
        <ele>582.7</ele>
        <time>2011-10-22T12:24:15Z</time>
      </trkpt>
      <trkpt lat="45.94976" lon="4.60332">
        <ele>582.22</ele>
        <time>2011-10-22T12:24:31Z</time>
      </trkpt>
      <trkpt lat="45.95008" lon="4.60285">
        <ele>581.25</ele>
        <time>2011-10-22T12:24:46Z</time>
      </trkpt>
      <trkpt lat="45.95045" lon="4.60252">
        <ele>581.73</ele>
        <time>2011-10-22T12:27:02Z</time>
      </trkpt>
      <trkpt lat="45.95087" lon="4.60226">
        <ele>584.62</ele>
        <time>2011-10-22T12:27:29Z</time>
      </trkpt>
      <trkpt lat="45.95116" lon="4.60175">
        <ele>593.27</ele>
        <time>2011-10-22T12:28:05Z</time>
      </trkpt>
      <trkpt lat="45.95146" lon="4.60125">
        <ele>601.92</ele>
        <time>2011-10-22T12:28:43Z</time>
      </trkpt>
      <trkpt lat="45.95175" lon="4.60069">
        <ele>612.5</ele>
        <time>2011-10-22T12:29:42Z</time>
      </trkpt>
      <trkpt lat="45.95208" lon="4.6001">
        <ele>623.07</ele>
        <time>2011-10-22T12:30:42Z</time>
      </trkpt>
      <trkpt lat="45.95227" lon="4.59932">
        <ele>631.24</ele>
        <time>2011-10-22T12:31:20Z</time>
      </trkpt>
      <trkpt lat="45.95249" lon="4.59857">
        <ele>640.38</ele>
        <time>2011-10-22T12:32:02Z</time>
      </trkpt>
      <trkpt lat="45.95268" lon="4.59778">
        <ele>645.18</ele>
        <time>2011-10-22T12:32:34Z</time>
      </trkpt>
      <trkpt lat="45.95307" lon="4.59689">
        <ele>651.43</ele>
        <time>2011-10-22T12:33:10Z</time>
      </trkpt>
      <trkpt lat="45.95341" lon="4.59623">
        <ele>653.35</ele>
        <time>2011-10-22T12:33:37Z</time>
      </trkpt>
      <trkpt lat="45.95374" lon="4.59556">
        <ele>654.8</ele>
        <time>2011-10-22T12:34:02Z</time>
      </trkpt>
      <trkpt lat="45.9541" lon="4.59502">
        <ele>656.72</ele>
        <time>2011-10-22T12:34:22Z</time>
      </trkpt>
      <trkpt lat="45.95452" lon="4.59462">
        <ele>658.16</ele>
        <time>2011-10-22T12:34:39Z</time>
      </trkpt>
      <trkpt lat="45.95491" lon="4.59422">
        <ele>656.72</ele>
        <time>2011-10-22T12:34:53Z</time>
      </trkpt>
      <trkpt lat="45.95528" lon="4.5939">
        <ele>656.24</ele>
        <time>2011-10-22T12:37:00Z</time>
      </trkpt>
      <trkpt lat="45.95564" lon="4.59363">
        <ele>655.76</ele>
        <time>2011-10-22T12:41:46Z</time>
      </trkpt>
      <trkpt lat="45.95612" lon="4.59342">
        <ele>653.83</ele>
        <time>2011-10-22T12:42:00Z</time>
      </trkpt>
      <trkpt lat="45.95657" lon="4.5932">
        <ele>652.39</ele>
        <time>2011-10-22T12:42:11Z</time>
      </trkpt>
      <trkpt lat="45.95701" lon="4.59296">
        <ele>649.99</ele>
        <time>2011-10-22T12:42:21Z</time>
      </trkpt>
      <trkpt lat="45.95746" lon="4.59274">
        <ele>646.62</ele>
        <time>2011-10-22T12:42:30Z</time>
      </trkpt>
      <trkpt lat="45.95791" lon="4.59249">
        <ele>644.22</ele>
        <time>2011-10-22T12:42:38Z</time>
      </trkpt>
      <trkpt lat="45.95837" lon="4.59233">
        <ele>643.26</ele>
        <time>2011-10-22T12:42:46Z</time>
      </trkpt>
      <trkpt lat="45.95884" lon="4.59214">
        <ele>642.3</ele>
        <time>2011-10-22T12:42:55Z</time>
      </trkpt>
      <trkpt lat="45.95923" lon="4.59174">
        <ele>639.41</ele>
        <time>2011-10-22T12:43:03Z</time>
      </trkpt>
      <trkpt lat="45.95969" lon="4.59144">
        <ele>636.53</ele>
        <time>2011-10-22T12:43:10Z</time>
      </trkpt>
      <trkpt lat="45.96014" lon="4.59113">
        <ele>635.57</ele>
        <time>2011-10-22T12:43:18Z</time>
      </trkpt>
      <trkpt lat="45.96059" lon="4.59081">
        <ele>633.17</ele>
        <time>2011-10-22T12:43:26Z</time>
      </trkpt>
      <trkpt lat="45.96093" lon="4.59039">
        <ele>628.36</ele>
        <time>2011-10-22T12:43:33Z</time>
      </trkpt>
      <trkpt lat="45.96134" lon="4.5901">
        <ele>620.19</ele>
        <time>2011-10-22T12:43:41Z</time>
      </trkpt>
      <trkpt lat="45.9616" lon="4.58958">
        <ele>614.9</ele>
        <time>2011-10-22T12:43:52Z</time>
      </trkpt>
      <trkpt lat="45.96206" lon="4.58949">
        <ele>615.86</ele>
        <time>2011-10-22T12:44:14Z</time>
      </trkpt>
      <trkpt lat="45.96251" lon="4.58924">
        <ele>615.38</ele>
        <time>2011-10-22T12:44:30Z</time>
      </trkpt>
      <trkpt lat="45.96297" lon="4.58901">
        <ele>613.94</ele>
        <time>2011-10-22T12:44:42Z</time>
      </trkpt>
      <trkpt lat="45.96341" lon="4.58884">
        <ele>613.46</ele>
        <time>2011-10-22T12:44:52Z</time>
      </trkpt>
      <trkpt lat="45.9639" lon="4.58877">
        <ele>612.98</ele>
        <time>2011-10-22T12:45:03Z</time>
      </trkpt>
      <trkpt lat="45.96439" lon="4.58871">
        <ele>612.98</ele>
        <time>2011-10-22T12:45:14Z</time>
      </trkpt>
      <trkpt lat="45.96484" lon="4.58874">
        <ele>612.5</ele>
        <time>2011-10-22T12:45:25Z</time>
      </trkpt>
      <trkpt lat="45.96533" lon="4.58876">
        <ele>610.57</ele>
        <time>2011-10-22T12:45:36Z</time>
      </trkpt>
      <trkpt lat="45.9658" lon="4.58878">
        <ele>609.61</ele>
        <time>2011-10-22T12:45:46Z</time>
      </trkpt>
      <trkpt lat="45.96627" lon="4.58868">
        <ele>606.73</ele>
        <time>2011-10-22T12:45:55Z</time>
      </trkpt>
      <trkpt lat="45.96673" lon="4.58842">
        <ele>603.85</ele>
        <time>2011-10-22T12:46:04Z</time>
      </trkpt>
      <trkpt lat="45.96719" lon="4.58813">
        <ele>599.04</ele>
        <time>2011-10-22T12:46:12Z</time>
      </trkpt>
      <trkpt lat="45.96768" lon="4.58787">
        <ele>596.15</ele>
        <time>2011-10-22T12:46:19Z</time>
      </trkpt>
      <trkpt lat="45.96811" lon="4.58763">
        <ele>594.71</ele>
        <time>2011-10-22T12:46:25Z</time>
      </trkpt>
      <trkpt lat="45.96858" lon="4.58736">
        <ele>595.19</ele>
        <time>2011-10-22T12:46:34Z</time>
      </trkpt>
      <trkpt lat="45.96901" lon="4.58708">
        <ele>596.15</ele>
        <time>2011-10-22T12:46:46Z</time>
      </trkpt>
      <trkpt lat="45.96943" lon="4.58678">
        <ele>596.64</ele>
        <time>2011-10-22T12:46:59Z</time>
      </trkpt>
      <trkpt lat="45.96983" lon="4.58639">
        <ele>595.67</ele>
        <time>2011-10-22T12:47:13Z</time>
      </trkpt>
      <trkpt lat="45.97023" lon="4.58596">
        <ele>596.15</ele>
        <time>2011-10-22T12:47:31Z</time>
      </trkpt>
      <trkpt lat="45.97054" lon="4.58543">
        <ele>600.48</ele>
        <time>2011-10-22T12:47:51Z</time>
      </trkpt>
      <trkpt lat="45.97088" lon="4.58493">
        <ele>603.36</ele>
        <time>2011-10-22T12:48:12Z</time>
      </trkpt>
      <trkpt lat="45.97128" lon="4.5846">
        <ele>605.77</ele>
        <time>2011-10-22T12:48:29Z</time>
      </trkpt>
      <trkpt lat="45.9717" lon="4.58429">
        <ele>606.25</ele>
        <time>2011-10-22T12:48:47Z</time>
      </trkpt>
      <trkpt lat="45.97217" lon="4.58413">
        <ele>605.77</ele>
        <time>2011-10-22T12:49:06Z</time>
      </trkpt>
      <trkpt lat="45.97262" lon="4.58401">
        <ele>602.88</ele>
        <time>2011-10-22T12:49:21Z</time>
      </trkpt>
      <trkpt lat="45.97306" lon="4.58391">
        <ele>600.96</ele>
        <time>2011-10-22T12:49:47Z</time>
      </trkpt>
      <trkpt lat="45.97347" lon="4.5836">
        <ele>597.6</ele>
        <time>2011-10-22T12:50:00Z</time>
      </trkpt>
      <trkpt lat="45.97397" lon="4.58363">
        <ele>594.71</ele>
        <time>2011-10-22T12:50:10Z</time>
      </trkpt>
      <trkpt lat="45.97447" lon="4.58383">
        <ele>591.35</ele>
        <time>2011-10-22T12:50:19Z</time>
      </trkpt>
      <trkpt lat="45.97496" lon="4.58393">
        <ele>585.1</ele>
        <time>2011-10-22T12:50:27Z</time>
      </trkpt>
      <trkpt lat="45.97542" lon="4.58404">
        <ele>580.29</ele>
        <time>2011-10-22T12:50:34Z</time>
      </trkpt>
      <trkpt lat="45.97588" lon="4.58398">
        <ele>575.97</ele>
        <time>2011-10-22T12:50:41Z</time>
      </trkpt>
      <trkpt lat="45.97639" lon="4.58395">
        <ele>571.64</ele>
        <time>2011-10-22T12:50:48Z</time>
      </trkpt>
      <trkpt lat="45.97686" lon="4.58393">
        <ele>567.32</ele>
        <time>2011-10-22T12:50:55Z</time>
      </trkpt>
      <trkpt lat="45.97726" lon="4.58366">
        <ele>563.47</ele>
        <time>2011-10-22T12:51:03Z</time>
      </trkpt>
      <trkpt lat="45.97767" lon="4.58333">
        <ele>560.11</ele>
        <time>2011-10-22T12:51:11Z</time>
      </trkpt>
      <trkpt lat="45.97815" lon="4.58342">
        <ele>558.18</ele>
        <time>2011-10-22T12:51:20Z</time>
      </trkpt>
      <trkpt lat="45.97849" lon="4.58298">
        <ele>559.14</ele>
        <time>2011-10-22T12:51:39Z</time>
      </trkpt>
      <trkpt lat="45.9789" lon="4.58264">
        <ele>560.59</ele>
        <time>2011-10-22T12:52:00Z</time>
      </trkpt>
      <trkpt lat="45.97936" lon="4.58242">
        <ele>563.95</ele>
        <time>2011-10-22T12:52:20Z</time>
      </trkpt>
      <trkpt lat="45.97983" lon="4.58239">
        <ele>567.8</ele>
        <time>2011-10-22T12:52:41Z</time>
      </trkpt>
      <trkpt lat="45.98031" lon="4.58232">
        <ele>571.16</ele>
        <time>2011-10-22T12:53:03Z</time>
      </trkpt>
      <trkpt lat="45.98021" lon="4.582">
        <ele>575.01</ele>
        <time>2011-10-22T12:53:32Z</time>
      </trkpt>
      <trkpt lat="45.98063" lon="4.5817">
        <ele>580.29</ele>
        <time>2011-10-22T12:53:58Z</time>
      </trkpt>
      <trkpt lat="45.98105" lon="4.58143">
        <ele>584.14</ele>
        <time>2011-10-22T12:54:23Z</time>
      </trkpt>
      <trkpt lat="45.98147" lon="4.58122">
        <ele>588.46</ele>
        <time>2011-10-22T12:54:49Z</time>
      </trkpt>
      <trkpt lat="45.9819" lon="4.58107">
        <ele>595.67</ele>
        <time>2011-10-22T12:55:26Z</time>
      </trkpt>
      <trkpt lat="45.98231" lon="4.58088">
        <ele>603.36</ele>
        <time>2011-10-22T12:56:19Z</time>
      </trkpt>
      <trkpt lat="45.98269" lon="4.58049">
        <ele>608.65</ele>
        <time>2011-10-22T12:56:47Z</time>
      </trkpt>
      <trkpt lat="45.9831" lon="4.5801">
        <ele>613.94</ele>
        <time>2011-10-22T12:57:16Z</time>
      </trkpt>
      <trkpt lat="45.98327" lon="4.57947">
        <ele>619.23</ele>
        <time>2011-10-22T12:57:43Z</time>
      </trkpt>
      <trkpt lat="45.9835" lon="4.57888">
        <ele>623.07</ele>
        <time>2011-10-22T12:58:07Z</time>
      </trkpt>
      <trkpt lat="45.98379" lon="4.57836">
        <ele>625.96</ele>
        <time>2011-10-22T12:58:30Z</time>
      </trkpt>
      <trkpt lat="45.98416" lon="4.57781">
        <ele>632.68</ele>
        <time>2011-10-22T12:59:05Z</time>
      </trkpt>
      <trkpt lat="45.98453" lon="4.57725">
        <ele>636.53</ele>
        <time>2011-10-22T12:59:35Z</time>
      </trkpt>
      <trkpt lat="45.98491" lon="4.57643">
        <ele>648.55</ele>
        <time>2011-10-22T13:00:31Z</time>
      </trkpt>
      <trkpt lat="45.98511" lon="4.57575">
        <ele>656.24</ele>
        <time>2011-10-22T13:01:27Z</time>
      </trkpt>
      <trkpt lat="45.9852" lon="4.57503">
        <ele>654.31</ele>
        <time>2011-10-22T13:05:19Z</time>
      </trkpt>
      <trkpt lat="45.9853" lon="4.57431">
        <ele>652.39</ele>
        <time>2011-10-22T13:05:33Z</time>
      </trkpt>
      <trkpt lat="45.98551" lon="4.57366">
        <ele>652.87</ele>
        <time>2011-10-22T13:05:47Z</time>
      </trkpt>
      <trkpt lat="45.98577" lon="4.57298">
        <ele>654.31</ele>
        <time>2011-10-22T13:06:03Z</time>
      </trkpt>
      <trkpt lat="45.98622" lon="4.57259">
        <ele>657.68</ele>
        <time>2011-10-22T13:06:24Z</time>
      </trkpt>
      <trkpt lat="45.98672" lon="4.57267">
        <ele>661.52</ele>
        <time>2011-10-22T13:06:49Z</time>
      </trkpt>
      <trkpt lat="45.98722" lon="4.57248">
        <ele>666.81</ele>
        <time>2011-10-22T13:07:18Z</time>
      </trkpt>
      <trkpt lat="45.98761" lon="4.57228">
        <ele>671.14</ele>
        <time>2011-10-22T13:07:46Z</time>
      </trkpt>
      <trkpt lat="45.9874" lon="4.57173">
        <ele>678.35</ele>
        <time>2011-10-22T13:08:27Z</time>
      </trkpt>
      <trkpt lat="45.98715" lon="4.57114">
        <ele>683.15</ele>
        <time>2011-10-22T13:08:54Z</time>
      </trkpt>
      <trkpt lat="45.98695" lon="4.57051">
        <ele>681.23</ele>
        <time>2011-10-22T13:09:11Z</time>
      </trkpt>
      <trkpt lat="45.98683" lon="4.56983">
        <ele>679.31</ele>
        <time>2011-10-22T13:09:23Z</time>
      </trkpt>
      <trkpt lat="45.98676" lon="4.56912">
        <ele>683.15</ele>
        <time>2011-10-22T13:09:39Z</time>
      </trkpt>
      <trkpt lat="45.98702" lon="4.5685">
        <ele>687.48</ele>
        <time>2011-10-22T13:09:58Z</time>
      </trkpt>
      <trkpt lat="45.98719" lon="4.56785">
        <ele>690.36</ele>
        <time>2011-10-22T13:10:17Z</time>
      </trkpt>
      <trkpt lat="45.9874" lon="4.5672">
        <ele>687.96</ele>
        <time>2011-10-22T13:11:59Z</time>
      </trkpt>
      <trkpt lat="45.98784" lon="4.56697">
        <ele>689.4</ele>
        <time>2011-10-22T13:12:12Z</time>
      </trkpt>
      <trkpt lat="45.98828" lon="4.56653">
        <ele>692.77</ele>
        <time>2011-10-22T13:12:35Z</time>
      </trkpt>
      <trkpt lat="45.98872" lon="4.566">
        <ele>699.5</ele>
        <time>2011-10-22T13:13:08Z</time>
      </trkpt>
      <trkpt lat="45.98914" lon="4.56636">
        <ele>703.34</ele>
        <time>2011-10-22T13:14:04Z</time>
      </trkpt>
      <trkpt lat="45.98958" lon="4.56683">
        <ele>700.46</ele>
        <time>2011-10-22T13:14:26Z</time>
      </trkpt>
      <trkpt lat="45.99003" lon="4.56717">
        <ele>697.57</ele>
        <time>2011-10-22T13:14:36Z</time>
      </trkpt>
      <trkpt lat="45.99052" lon="4.56761">
        <ele>696.61</ele>
        <time>2011-10-22T13:14:51Z</time>
      </trkpt>
      <trkpt lat="45.99098" lon="4.56765">
        <ele>692.29</ele>
        <time>2011-10-22T13:15:03Z</time>
      </trkpt>
      <trkpt lat="45.99145" lon="4.56738">
        <ele>693.25</ele>
        <time>2011-10-22T13:15:15Z</time>
      </trkpt>
      <trkpt lat="45.99185" lon="4.56758">
        <ele>695.65</ele>
        <time>2011-10-22T13:15:29Z</time>
      </trkpt>
      <trkpt lat="45.99204" lon="4.56823">
        <ele>695.17</ele>
        <time>2011-10-22T13:15:40Z</time>
      </trkpt>
      <trkpt lat="45.99226" lon="4.56885">
        <ele>692.77</ele>
        <time>2011-10-22T13:15:51Z</time>
      </trkpt>
      <trkpt lat="45.99266" lon="4.56932">
        <ele>694.21</ele>
        <time>2011-10-22T13:16:05Z</time>
      </trkpt>
      <trkpt lat="45.99292" lon="4.56993">
        <ele>697.09</ele>
        <time>2011-10-22T13:16:19Z</time>
      </trkpt>
      <trkpt lat="45.99301" lon="4.57067">
        <ele>699.02</ele>
        <time>2011-10-22T13:16:34Z</time>
      </trkpt>
      <trkpt lat="45.99308" lon="4.57139">
        <ele>700.46</ele>
        <time>2011-10-22T13:16:50Z</time>
      </trkpt>
      <trkpt lat="45.99309" lon="4.57212">
        <ele>695.17</ele>
        <time>2011-10-22T13:17:03Z</time>
      </trkpt>
      <trkpt lat="45.99319" lon="4.57279">
        <ele>687.96</ele>
        <time>2011-10-22T13:17:29Z</time>
      </trkpt>
      <trkpt lat="45.99312" lon="4.5726">
        <ele>689.88</ele>
        <time>2011-10-22T13:19:42Z</time>
      </trkpt>
      <trkpt lat="45.99309" lon="4.57194">
        <ele>697.09</ele>
        <time>2011-10-22T13:20:13Z</time>
      </trkpt>
      <trkpt lat="45.99305" lon="4.57126">
        <ele>700.46</ele>
        <time>2011-10-22T13:20:39Z</time>
      </trkpt>
      <trkpt lat="45.99299" lon="4.57054">
        <ele>698.53</ele>
        <time>2011-10-22T13:20:54Z</time>
      </trkpt>
      <trkpt lat="45.9929" lon="4.56984">
        <ele>696.61</ele>
        <time>2011-10-22T13:21:03Z</time>
      </trkpt>
      <trkpt lat="45.99259" lon="4.56931">
        <ele>695.65</ele>
        <time>2011-10-22T13:21:13Z</time>
      </trkpt>
      <trkpt lat="45.99223" lon="4.56884">
        <ele>692.77</ele>
        <time>2011-10-22T13:21:23Z</time>
      </trkpt>
      <trkpt lat="45.99203" lon="4.5682">
        <ele>694.69</ele>
        <time>2011-10-22T13:21:34Z</time>
      </trkpt>
      <trkpt lat="45.99187" lon="4.56754">
        <ele>695.17</ele>
        <time>2011-10-22T13:21:45Z</time>
      </trkpt>
      <trkpt lat="45.99147" lon="4.56744">
        <ele>692.77</ele>
        <time>2011-10-22T13:21:55Z</time>
      </trkpt>
      <trkpt lat="45.991" lon="4.56768">
        <ele>691.81</ele>
        <time>2011-10-22T13:22:04Z</time>
      </trkpt>
      <trkpt lat="45.99054" lon="4.56757">
        <ele>695.17</ele>
        <time>2011-10-22T13:22:19Z</time>
      </trkpt>
      <trkpt lat="45.99065" lon="4.56738">
        <ele>700.46</ele>
        <time>2011-10-22T13:22:49Z</time>
      </trkpt>
      <trkpt lat="45.99105" lon="4.56689">
        <ele>711.99</ele>
        <time>2011-10-22T13:23:38Z</time>
      </trkpt>
      <trkpt lat="45.99157" lon="4.56661">
        <ele>719.68</ele>
        <time>2011-10-22T13:24:16Z</time>
      </trkpt>
      <trkpt lat="45.992" lon="4.56637">
        <ele>727.37</ele>
        <time>2011-10-22T13:24:52Z</time>
      </trkpt>
      <trkpt lat="45.9925" lon="4.56623">
        <ele>736.99</ele>
        <time>2011-10-22T13:25:34Z</time>
      </trkpt>
      <trkpt lat="45.99288" lon="4.5665">
        <ele>745.64</ele>
        <time>2011-10-22T13:26:10Z</time>
      </trkpt>
      <trkpt lat="45.99296" lon="4.56716">
        <ele>747.08</ele>
        <time>2011-10-22T13:26:32Z</time>
      </trkpt>
      <trkpt lat="45.99314" lon="4.56777">
        <ele>747.56</ele>
        <time>2011-10-22T13:26:47Z</time>
      </trkpt>
      <trkpt lat="45.99341" lon="4.56832">
        <ele>751.89</ele>
        <time>2011-10-22T13:27:08Z</time>
      </trkpt>
      <trkpt lat="45.99357" lon="4.56894">
        <ele>750.93</ele>
        <time>2011-10-22T13:27:21Z</time>
      </trkpt>
      <trkpt lat="45.99384" lon="4.5694">
        <ele>754.77</ele>
        <time>2011-10-22T13:27:46Z</time>
      </trkpt>
      <trkpt lat="45.99377" lon="4.56876">
        <ele>763.42</ele>
        <time>2011-10-22T13:29:14Z</time>
      </trkpt>
      <trkpt lat="45.99376" lon="4.5681">
        <ele>770.15</ele>
        <time>2011-10-22T13:30:02Z</time>
      </trkpt>
      <trkpt lat="45.99372" lon="4.56743">
        <ele>774.96</ele>
        <time>2011-10-22T13:30:30Z</time>
      </trkpt>
      <trkpt lat="45.99358" lon="4.5668">
        <ele>778.81</ele>
        <time>2011-10-22T13:30:56Z</time>
      </trkpt>
      <trkpt lat="45.99346" lon="4.56614">
        <ele>780.25</ele>
        <time>2011-10-22T13:31:15Z</time>
      </trkpt>
      <trkpt lat="45.99341" lon="4.56549">
        <ele>786.5</ele>
        <time>2011-10-22T13:31:42Z</time>
      </trkpt>
      <trkpt lat="45.99333" lon="4.56484">
        <ele>788.42</ele>
        <time>2011-10-22T13:32:04Z</time>
      </trkpt>
      <trkpt lat="45.99342" lon="4.56417">
        <ele>786.5</ele>
        <time>2011-10-22T13:32:19Z</time>
      </trkpt>
      <trkpt lat="45.99369" lon="4.56362">
        <ele>781.69</ele>
        <time>2011-10-22T13:36:11Z</time>
      </trkpt>
      <trkpt lat="45.99406" lon="4.56317">
        <ele>775.92</ele>
        <time>2011-10-22T13:36:21Z</time>
      </trkpt>
      <trkpt lat="45.99447" lon="4.56288">
        <ele>768.71</ele>
        <time>2011-10-22T13:36:32Z</time>
      </trkpt>
      <trkpt lat="45.99487" lon="4.56252">
        <ele>760.54</ele>
        <time>2011-10-22T13:36:46Z</time>
      </trkpt>
      <trkpt lat="45.99524" lon="4.56205">
        <ele>755.73</ele>
        <time>2011-10-22T13:36:55Z</time>
      </trkpt>
      <trkpt lat="45.99566" lon="4.56176">
        <ele>762.94</ele>
        <time>2011-10-22T13:37:22Z</time>
      </trkpt>
      <trkpt lat="45.99607" lon="4.5614">
        <ele>769.67</ele>
        <time>2011-10-22T13:37:53Z</time>
      </trkpt>
      <trkpt lat="45.99647" lon="4.561">
        <ele>774</ele>
        <time>2011-10-22T13:38:21Z</time>
      </trkpt>
      <trkpt lat="45.99682" lon="4.56055">
        <ele>778.81</ele>
        <time>2011-10-22T13:38:49Z</time>
      </trkpt>
      <trkpt lat="45.99721" lon="4.56056">
        <ele>784.57</ele>
        <time>2011-10-22T13:41:32Z</time>
      </trkpt>
      <trkpt lat="45.9976" lon="4.5608">
        <ele>779.29</ele>
        <time>2011-10-22T13:48:20Z</time>
      </trkpt>
      <trkpt lat="45.99795" lon="4.56108">
        <ele>769.19</ele>
        <time>2011-10-22T13:48:33Z</time>
      </trkpt>
      <trkpt lat="45.99822" lon="4.56176">
        <ele>763.42</ele>
        <time>2011-10-22T13:48:42Z</time>
      </trkpt>
      <trkpt lat="45.99854" lon="4.5623">
        <ele>757.66</ele>
        <time>2011-10-22T13:48:49Z</time>
      </trkpt>
      <trkpt lat="45.99887" lon="4.5629">
        <ele>752.37</ele>
        <time>2011-10-22T13:48:56Z</time>
      </trkpt>
      <trkpt lat="45.99877" lon="4.5636">
        <ele>745.64</ele>
        <time>2011-10-22T13:49:06Z</time>
      </trkpt>
      <trkpt lat="45.99874" lon="4.56432">
        <ele>736.99</ele>
        <time>2011-10-22T13:49:16Z</time>
      </trkpt>
      <trkpt lat="45.99944" lon="4.5648">
        <ele>731.22</ele>
        <time>2011-10-22T13:49:24Z</time>
      </trkpt>
      <trkpt lat="46.00002" lon="4.56515">
        <ele>724.97</ele>
        <time>2011-10-22T13:49:33Z</time>
      </trkpt>
      <trkpt lat="46.00004" lon="4.56567">
        <ele>718.24</ele>
        <time>2011-10-22T13:50:56Z</time>
      </trkpt>
      <trkpt lat="45.99966" lon="4.56606">
        <ele>713.92</ele>
        <time>2011-10-22T13:51:04Z</time>
      </trkpt>
      <trkpt lat="45.99944" lon="4.56662">
        <ele>708.63</ele>
        <time>2011-10-22T13:51:12Z</time>
      </trkpt>
      <trkpt lat="45.99965" lon="4.56721">
        <ele>702.86</ele>
        <time>2011-10-22T13:51:18Z</time>
      </trkpt>
      <trkpt lat="45.99998" lon="4.56771">
        <ele>698.53</ele>
        <time>2011-10-22T13:51:24Z</time>
      </trkpt>
      <trkpt lat="46.00042" lon="4.56807">
        <ele>692.77</ele>
        <time>2011-10-22T13:51:30Z</time>
      </trkpt>
      <trkpt lat="46.00087" lon="4.56841">
        <ele>686.52</ele>
        <time>2011-10-22T13:51:36Z</time>
      </trkpt>
      <trkpt lat="46.00131" lon="4.56867">
        <ele>681.23</ele>
        <time>2011-10-22T13:51:42Z</time>
      </trkpt>
      <trkpt lat="46.00174" lon="4.56899">
        <ele>675.46</ele>
        <time>2011-10-22T13:51:49Z</time>
      </trkpt>
      <trkpt lat="46.00215" lon="4.56942">
        <ele>669.22</ele>
        <time>2011-10-22T13:51:56Z</time>
      </trkpt>
      <trkpt lat="46.00249" lon="4.56997">
        <ele>663.93</ele>
        <time>2011-10-22T13:52:03Z</time>
      </trkpt>
      <trkpt lat="46.00284" lon="4.57052">
        <ele>657.68</ele>
        <time>2011-10-22T13:52:10Z</time>
      </trkpt>
      <trkpt lat="46.00307" lon="4.57119">
        <ele>651.91</ele>
        <time>2011-10-22T13:52:17Z</time>
      </trkpt>
      <trkpt lat="46.00321" lon="4.57189">
        <ele>645.66</ele>
        <time>2011-10-22T13:52:23Z</time>
      </trkpt>
      <trkpt lat="46.00335" lon="4.57259">
        <ele>639.89</ele>
        <time>2011-10-22T13:52:30Z</time>
      </trkpt>
      <trkpt lat="46.00354" lon="4.57328">
        <ele>634.61</ele>
        <time>2011-10-22T13:52:37Z</time>
      </trkpt>
      <trkpt lat="46.00376" lon="4.57393">
        <ele>628.36</ele>
        <time>2011-10-22T13:52:44Z</time>
      </trkpt>
      <trkpt lat="46.00409" lon="4.57446">
        <ele>621.63</ele>
        <time>2011-10-22T13:54:05Z</time>
      </trkpt>
      <trkpt lat="46.00405" lon="4.57506">
        <ele>616.82</ele>
        <time>2011-10-22T13:54:17Z</time>
      </trkpt>
      <trkpt lat="46.0038" lon="4.57538">
        <ele>607.21</ele>
        <time>2011-10-22T13:54:35Z</time>
      </trkpt>
      <trkpt lat="46.00336" lon="4.57554">
        <ele>596.15</ele>
        <time>2011-10-22T13:54:49Z</time>
      </trkpt>
      <trkpt lat="46.00292" lon="4.57571">
        <ele>586.54</ele>
        <time>2011-10-22T13:55:01Z</time>
      </trkpt>
      <trkpt lat="46.00248" lon="4.57603">
        <ele>580.29</ele>
        <time>2011-10-22T13:55:10Z</time>
      </trkpt>
      <trkpt lat="46.00203" lon="4.57632">
        <ele>576.45</ele>
        <time>2011-10-22T13:55:18Z</time>
      </trkpt>
      <trkpt lat="46.00159" lon="4.57655">
        <ele>573.08</ele>
        <time>2011-10-22T13:55:26Z</time>
      </trkpt>
      <trkpt lat="46.0011" lon="4.57667">
        <ele>571.16</ele>
        <time>2011-10-22T13:55:35Z</time>
      </trkpt>
      <trkpt lat="46.00058" lon="4.57664">
        <ele>566.35</ele>
        <time>2011-10-22T13:55:44Z</time>
      </trkpt>
      <trkpt lat="46.00008" lon="4.5766">
        <ele>562.03</ele>
        <time>2011-10-22T13:55:52Z</time>
      </trkpt>
      <trkpt lat="45.99984" lon="4.57713">
        <ele>557.7</ele>
        <time>2011-10-22T13:56:07Z</time>
      </trkpt>
      <trkpt lat="45.99979" lon="4.57789">
        <ele>547.61</ele>
        <time>2011-10-22T13:56:28Z</time>
      </trkpt>
      <trkpt lat="45.99976" lon="4.57859">
        <ele>538.48</ele>
        <time>2011-10-22T13:56:49Z</time>
      </trkpt>
      <trkpt lat="45.99954" lon="4.57917">
        <ele>525.5</ele>
        <time>2011-10-22T13:57:29Z</time>
      </trkpt>
      <trkpt lat="45.99926" lon="4.57977">
        <ele>519.73</ele>
        <time>2011-10-22T13:57:50Z</time>
      </trkpt>
      <trkpt lat="45.99886" lon="4.58001">
        <ele>518.29</ele>
        <time>2011-10-22T14:04:30Z</time>
      </trkpt>
      <trkpt lat="45.99861" lon="4.5805">
        <ele>520.69</ele>
        <time>2011-10-22T14:04:49Z</time>
      </trkpt>
      <trkpt lat="45.99869" lon="4.58118">
        <ele>524.06</ele>
        <time>2011-10-22T14:05:08Z</time>
      </trkpt>
      <trkpt lat="45.99882" lon="4.58184">
        <ele>528.38</ele>
        <time>2011-10-22T14:05:30Z</time>
      </trkpt>
      <trkpt lat="45.99899" lon="4.58248">
        <ele>533.19</ele>
        <time>2011-10-22T14:05:54Z</time>
      </trkpt>
      <trkpt lat="45.99881" lon="4.58308">
        <ele>533.19</ele>
        <time>2011-10-22T14:06:11Z</time>
      </trkpt>
      <trkpt lat="45.99842" lon="4.58341">
        <ele>532.71</ele>
        <time>2011-10-22T14:06:24Z</time>
      </trkpt>
      <trkpt lat="45.99797" lon="4.5836">
        <ele>531.75</ele>
        <time>2011-10-22T14:06:35Z</time>
      </trkpt>
      <trkpt lat="45.9975" lon="4.58374">
        <ele>531.27</ele>
        <time>2011-10-22T14:06:45Z</time>
      </trkpt>
      <trkpt lat="45.99703" lon="4.58398">
        <ele>530.3</ele>
        <time>2011-10-22T14:06:54Z</time>
      </trkpt>
      <trkpt lat="45.99658" lon="4.5841">
        <ele>528.38</ele>
        <time>2011-10-22T14:07:02Z</time>
      </trkpt>
      <trkpt lat="45.99612" lon="4.58433">
        <ele>528.86</ele>
        <time>2011-10-22T14:07:11Z</time>
      </trkpt>
      <trkpt lat="45.99566" lon="4.5843">
        <ele>530.3</ele>
        <time>2011-10-22T14:07:21Z</time>
      </trkpt>
      <trkpt lat="45.99527" lon="4.58452">
        <ele>532.23</ele>
        <time>2011-10-22T14:07:33Z</time>
      </trkpt>
      <trkpt lat="45.99497" lon="4.58499">
        <ele>535.11</ele>
        <time>2011-10-22T14:07:48Z</time>
      </trkpt>
      <trkpt lat="45.99454" lon="4.58526">
        <ele>537.03</ele>
        <time>2011-10-22T14:08:03Z</time>
      </trkpt>
      <trkpt lat="45.99409" lon="4.58556">
        <ele>538.96</ele>
        <time>2011-10-22T14:08:18Z</time>
      </trkpt>
      <trkpt lat="45.99371" lon="4.58594">
        <ele>541.84</ele>
        <time>2011-10-22T14:08:32Z</time>
      </trkpt>
      <trkpt lat="45.99337" lon="4.5864">
        <ele>542.8</ele>
        <time>2011-10-22T14:08:46Z</time>
      </trkpt>
      <trkpt lat="45.99334" lon="4.58686">
        <ele>544.72</ele>
        <time>2011-10-22T14:09:03Z</time>
      </trkpt>
      <trkpt lat="45.99375" lon="4.58718">
        <ele>547.61</ele>
        <time>2011-10-22T14:09:24Z</time>
      </trkpt>
      <trkpt lat="45.99415" lon="4.5875">
        <ele>552.9</ele>
        <time>2011-10-22T14:09:49Z</time>
      </trkpt>
      <trkpt lat="45.99455" lon="4.58779">
        <ele>561.55</ele>
        <time>2011-10-22T14:10:18Z</time>
      </trkpt>
      <trkpt lat="45.99491" lon="4.58815">
        <ele>568.76</ele>
        <time>2011-10-22T14:10:49Z</time>
      </trkpt>
      <trkpt lat="45.99513" lon="4.58874">
        <ele>573.08</ele>
        <time>2011-10-22T14:11:15Z</time>
      </trkpt>
      <trkpt lat="45.9953" lon="4.58935">
        <ele>576.45</ele>
        <time>2011-10-22T14:11:38Z</time>
      </trkpt>
      <trkpt lat="45.99567" lon="4.58967">
        <ele>577.89</ele>
        <time>2011-10-22T14:11:55Z</time>
      </trkpt>
      <trkpt lat="45.99574" lon="4.59011">
        <ele>578.85</ele>
        <time>2011-10-22T14:12:18Z</time>
      </trkpt>
      <trkpt lat="45.99597" lon="4.59006">
        <ele>577.41</ele>
        <time>2011-10-22T14:14:34Z</time>
      </trkpt>
      <trkpt lat="45.99618" lon="4.59066">
        <ele>571.16</ele>
        <time>2011-10-22T14:14:45Z</time>
      </trkpt>
      <trkpt lat="45.99626" lon="4.5913">
        <ele>562.99</ele>
        <time>2011-10-22T14:14:54Z</time>
      </trkpt>
      <trkpt lat="45.99669" lon="4.59162">
        <ele>557.7</ele>
        <time>2011-10-22T14:15:01Z</time>
      </trkpt>
      <trkpt lat="45.99702" lon="4.5921">
        <ele>551.45</ele>
        <time>2011-10-22T14:15:08Z</time>
      </trkpt>
      <trkpt lat="45.99726" lon="4.59261">
        <ele>542.32</ele>
        <time>2011-10-22T14:15:18Z</time>
      </trkpt>
      <trkpt lat="45.99683" lon="4.59288">
        <ele>537.03</ele>
        <time>2011-10-22T14:16:01Z</time>
      </trkpt>
      <trkpt lat="45.99636" lon="4.59265">
        <ele>533.19</ele>
        <time>2011-10-22T14:16:10Z</time>
      </trkpt>
      <trkpt lat="45.99592" lon="4.59246">
        <ele>532.23</ele>
        <time>2011-10-22T14:16:20Z</time>
      </trkpt>
      <trkpt lat="45.99552" lon="4.59212">
        <ele>529.82</ele>
        <time>2011-10-22T14:16:28Z</time>
      </trkpt>
      <trkpt lat="45.99511" lon="4.59176">
        <ele>528.86</ele>
        <time>2011-10-22T14:16:36Z</time>
      </trkpt>
      <trkpt lat="45.99467" lon="4.59152">
        <ele>529.34</ele>
        <time>2011-10-22T14:16:46Z</time>
      </trkpt>
      <trkpt lat="45.9942" lon="4.59151">
        <ele>531.27</ele>
        <time>2011-10-22T14:16:57Z</time>
      </trkpt>
      <trkpt lat="45.99371" lon="4.59168">
        <ele>532.71</ele>
        <time>2011-10-22T14:17:10Z</time>
      </trkpt>
      <trkpt lat="45.99325" lon="4.5917">
        <ele>531.75</ele>
        <time>2011-10-22T14:17:21Z</time>
      </trkpt>
      <trkpt lat="45.99278" lon="4.59151">
        <ele>530.3</ele>
        <time>2011-10-22T14:17:31Z</time>
      </trkpt>
      <trkpt lat="45.99234" lon="4.5917">
        <ele>526.46</ele>
        <time>2011-10-22T14:17:41Z</time>
      </trkpt>
      <trkpt lat="45.99188" lon="4.59172">
        <ele>522.61</ele>
        <time>2011-10-22T14:17:50Z</time>
      </trkpt>
      <trkpt lat="45.99182" lon="4.59236">
        <ele>521.17</ele>
        <time>2011-10-22T14:19:00Z</time>
      </trkpt>
      <trkpt lat="45.99164" lon="4.593">
        <ele>521.17</ele>
        <time>2011-10-22T14:19:11Z</time>
      </trkpt>
      <trkpt lat="45.99162" lon="4.59341">
        <ele>520.69</ele>
        <time>2011-10-22T14:19:25Z</time>
      </trkpt>
      <trkpt lat="45.99209" lon="4.59355">
        <ele>523.58</ele>
        <time>2011-10-22T14:19:40Z</time>
      </trkpt>
      <trkpt lat="45.99255" lon="4.59368">
        <ele>525.02</ele>
        <time>2011-10-22T14:19:55Z</time>
      </trkpt>
      <trkpt lat="45.99302" lon="4.59381">
        <ele>525.5</ele>
        <time>2011-10-22T14:20:08Z</time>
      </trkpt>
      <trkpt lat="45.99347" lon="4.59392">
        <ele>521.65</ele>
        <time>2011-10-22T14:20:17Z</time>
      </trkpt>
      <trkpt lat="45.99388" lon="4.59428">
        <ele>513.96</ele>
        <time>2011-10-22T14:20:30Z</time>
      </trkpt>
      <trkpt lat="45.99427" lon="4.59462">
        <ele>508.19</ele>
        <time>2011-10-22T14:20:39Z</time>
      </trkpt>
      <trkpt lat="45.99432" lon="4.5953">
        <ele>505.79</ele>
        <time>2011-10-22T14:20:48Z</time>
      </trkpt>
      <trkpt lat="45.99434" lon="4.59599">
        <ele>503.39</ele>
        <time>2011-10-22T14:20:56Z</time>
      </trkpt>
      <trkpt lat="45.99437" lon="4.5967">
        <ele>501.46</ele>
        <time>2011-10-22T14:21:05Z</time>
      </trkpt>
      <trkpt lat="45.99441" lon="4.59739">
        <ele>500.02</ele>
        <time>2011-10-22T14:21:13Z</time>
      </trkpt>
      <trkpt lat="45.99447" lon="4.59808">
        <ele>499.06</ele>
        <time>2011-10-22T14:21:22Z</time>
      </trkpt>
      <trkpt lat="45.99461" lon="4.59873">
        <ele>498.1</ele>
        <time>2011-10-22T14:21:31Z</time>
      </trkpt>
      <trkpt lat="45.99467" lon="4.59942">
        <ele>493.77</ele>
        <time>2011-10-22T14:21:41Z</time>
      </trkpt>
      <trkpt lat="45.99466" lon="4.60014">
        <ele>489.93</ele>
        <time>2011-10-22T14:21:49Z</time>
      </trkpt>
      <trkpt lat="45.99466" lon="4.60083">
        <ele>486.56</ele>
        <time>2011-10-22T14:21:56Z</time>
      </trkpt>
      <trkpt lat="45.99448" lon="4.60142">
        <ele>488.01</ele>
        <time>2011-10-22T14:22:10Z</time>
      </trkpt>
      <trkpt lat="45.99414" lon="4.60187">
        <ele>494.26</ele>
        <time>2011-10-22T14:22:35Z</time>
      </trkpt>
      <trkpt lat="45.99387" lon="4.60241">
        <ele>500.98</ele>
        <time>2011-10-22T14:23:05Z</time>
      </trkpt>
      <trkpt lat="45.99361" lon="4.60294">
        <ele>507.71</ele>
        <time>2011-10-22T14:23:33Z</time>
      </trkpt>
      <trkpt lat="45.99336" lon="4.60347">
        <ele>510.6</ele>
        <time>2011-10-22T14:23:55Z</time>
      </trkpt>
      <trkpt lat="45.99311" lon="4.604">
        <ele>513</ele>
        <time>2011-10-22T14:24:15Z</time>
      </trkpt>
      <trkpt lat="45.99282" lon="4.60454">
        <ele>513.48</ele>
        <time>2011-10-22T14:24:35Z</time>
      </trkpt>
      <trkpt lat="45.99243" lon="4.60483">
        <ele>512.04</ele>
        <time>2011-10-22T14:24:48Z</time>
      </trkpt>
      <trkpt lat="45.99198" lon="4.60491">
        <ele>510.12</ele>
        <time>2011-10-22T14:24:58Z</time>
      </trkpt>
      <trkpt lat="45.99151" lon="4.60497">
        <ele>507.71</ele>
        <time>2011-10-22T14:25:07Z</time>
      </trkpt>
      <trkpt lat="45.99106" lon="4.60492">
        <ele>505.31</ele>
        <time>2011-10-22T14:25:15Z</time>
      </trkpt>
      <trkpt lat="45.9906" lon="4.60483">
        <ele>502.91</ele>
        <time>2011-10-22T14:25:22Z</time>
      </trkpt>
      <trkpt lat="45.9901" lon="4.60474">
        <ele>499.06</ele>
        <time>2011-10-22T14:25:29Z</time>
      </trkpt>
      <trkpt lat="45.98965" lon="4.60465">
        <ele>495.22</ele>
        <time>2011-10-22T14:25:35Z</time>
      </trkpt>
      <trkpt lat="45.98921" lon="4.60461">
        <ele>488.97</ele>
        <time>2011-10-22T14:25:44Z</time>
      </trkpt>
      <trkpt lat="45.98939" lon="4.60525">
        <ele>484.64</ele>
        <time>2011-10-22T14:27:00Z</time>
      </trkpt>
      <trkpt lat="45.9894" lon="4.60589">
        <ele>477.43</ele>
        <time>2011-10-22T14:27:11Z</time>
      </trkpt>
      <trkpt lat="45.98919" lon="4.60655">
        <ele>473.11</ele>
        <time>2011-10-22T14:27:18Z</time>
      </trkpt>
      <trkpt lat="45.98894" lon="4.60711">
        <ele>471.66</ele>
        <time>2011-10-22T14:27:25Z</time>
      </trkpt>
      <trkpt lat="45.98866" lon="4.60768">
        <ele>472.14</ele>
        <time>2011-10-22T14:27:33Z</time>
      </trkpt>
      <trkpt lat="45.98846" lon="4.60825">
        <ele>473.11</ele>
        <time>2011-10-22T14:27:42Z</time>
      </trkpt>
      <trkpt lat="45.98801" lon="4.60819">
        <ele>471.18</ele>
        <time>2011-10-22T14:27:56Z</time>
      </trkpt>
      <trkpt lat="45.98777" lon="4.60768">
        <ele>470.22</ele>
        <time>2011-10-22T14:28:09Z</time>
      </trkpt>
      <trkpt lat="45.9873" lon="4.60752">
        <ele>468.78</ele>
        <time>2011-10-22T14:28:28Z</time>
      </trkpt>
      <trkpt lat="45.98683" lon="4.60738">
        <ele>468.3</ele>
        <time>2011-10-22T14:28:42Z</time>
      </trkpt>
      <trkpt lat="45.98636" lon="4.60732">
        <ele>467.34</ele>
        <time>2011-10-22T14:28:57Z</time>
      </trkpt>
      <trkpt lat="45.98593" lon="4.60717">
        <ele>462.53</ele>
        <time>2011-10-22T14:29:09Z</time>
      </trkpt>
      <trkpt lat="45.98547" lon="4.60744">
        <ele>456.28</ele>
        <time>2011-10-22T14:29:20Z</time>
      </trkpt>
      <trkpt lat="45.98498" lon="4.60762">
        <ele>448.59</ele>
        <time>2011-10-22T14:29:31Z</time>
      </trkpt>
      <trkpt lat="45.98451" lon="4.60781">
        <ele>442.34</ele>
        <time>2011-10-22T14:29:37Z</time>
      </trkpt>
      <trkpt lat="45.98406" lon="4.60812">
        <ele>436.58</ele>
        <time>2011-10-22T14:29:43Z</time>
      </trkpt>
      <trkpt lat="45.98366" lon="4.60815">
        <ele>430.33</ele>
        <time>2011-10-22T14:29:55Z</time>
      </trkpt>
      <trkpt lat="45.98379" lon="4.60785">
        <ele>431.77</ele>
        <time>2011-10-22T14:38:56Z</time>
      </trkpt>
      <trkpt lat="45.98378" lon="4.60739">
        <ele>428.4</ele>
        <time>2011-10-22T14:40:42Z</time>
      </trkpt>
      <trkpt lat="45.98343" lon="4.60694">
        <ele>420.71</ele>
        <time>2011-10-22T14:40:49Z</time>
      </trkpt>
      <trkpt lat="45.98311" lon="4.60656">
        <ele>411.1</ele>
        <time>2011-10-22T14:41:01Z</time>
      </trkpt>
      <trkpt lat="45.98263" lon="4.60648">
        <ele>404.85</ele>
        <time>2011-10-22T14:41:10Z</time>
      </trkpt>
      <trkpt lat="45.98217" lon="4.6067">
        <ele>400.05</ele>
        <time>2011-10-22T14:41:18Z</time>
      </trkpt>
      <trkpt lat="45.98185" lon="4.60712">
        <ele>390.91</ele>
        <time>2011-10-22T14:41:28Z</time>
      </trkpt>
      <trkpt lat="45.98137" lon="4.60741">
        <ele>386.11</ele>
        <time>2011-10-22T14:41:35Z</time>
      </trkpt>
      <trkpt lat="45.98101" lon="4.60783">
        <ele>384.18</ele>
        <time>2011-10-22T14:41:42Z</time>
      </trkpt>
      <trkpt lat="45.98076" lon="4.60838">
        <ele>377.94</ele>
        <time>2011-10-22T14:41:55Z</time>
      </trkpt>
      <trkpt lat="45.98038" lon="4.60827">
        <ele>372.65</ele>
        <time>2011-10-22T14:43:01Z</time>
      </trkpt>
      <trkpt lat="45.97996" lon="4.60806">
        <ele>366.4</ele>
        <time>2011-10-22T14:43:10Z</time>
      </trkpt>
      <trkpt lat="45.97971" lon="4.60851">
        <ele>360.63</ele>
        <time>2011-10-22T14:43:21Z</time>
      </trkpt>
      <trkpt lat="45.97952" lon="4.6091">
        <ele>355.34</ele>
        <time>2011-10-22T14:43:27Z</time>
      </trkpt>
      <trkpt lat="45.97912" lon="4.60943">
        <ele>349.58</ele>
        <time>2011-10-22T14:43:33Z</time>
      </trkpt>
      <trkpt lat="45.97879" lon="4.60916">
        <ele>340.44</ele>
        <time>2011-10-22T14:43:42Z</time>
      </trkpt>
      <trkpt lat="45.97846" lon="4.60873">
        <ele>334.2</ele>
        <time>2011-10-22T14:43:51Z</time>
      </trkpt>
      <trkpt lat="45.97799" lon="4.60892">
        <ele>329.39</ele>
        <time>2011-10-22T14:44:02Z</time>
      </trkpt>
      <trkpt lat="45.97769" lon="4.60945">
        <ele>328.91</ele>
        <time>2011-10-22T14:44:14Z</time>
      </trkpt>
      <trkpt lat="45.97746" lon="4.61004">
        <ele>330.35</ele>
        <time>2011-10-22T14:44:27Z</time>
      </trkpt>
      <trkpt lat="45.97721" lon="4.6107">
        <ele>335.16</ele>
        <time>2011-10-22T14:44:47Z</time>
      </trkpt>
      <trkpt lat="45.97706" lon="4.61139">
        <ele>340.92</ele>
        <time>2011-10-22T14:45:13Z</time>
      </trkpt>
      <trkpt lat="45.97676" lon="4.61171">
        <ele>349.1</ele>
        <time>2011-10-22T14:46:05Z</time>
      </trkpt>
      <trkpt lat="45.97631" lon="4.61138">
        <ele>359.67</ele>
        <time>2011-10-22T14:47:12Z</time>
      </trkpt>
      <trkpt lat="45.97603" lon="4.6108">
        <ele>364.96</ele>
        <time>2011-10-22T14:47:43Z</time>
      </trkpt>
      <trkpt lat="45.97587" lon="4.61019">
        <ele>366.88</ele>
        <time>2011-10-22T14:48:05Z</time>
      </trkpt>
      <trkpt lat="45.97572" lon="4.60958">
        <ele>369.76</ele>
        <time>2011-10-22T14:48:27Z</time>
      </trkpt>
      <trkpt lat="45.97554" lon="4.60894">
        <ele>376.01</ele>
        <time>2011-10-22T14:48:57Z</time>
      </trkpt>
      <trkpt lat="45.97539" lon="4.6082">
        <ele>385.63</ele>
        <time>2011-10-22T14:49:42Z</time>
      </trkpt>
      <trkpt lat="45.97512" lon="4.6075">
        <ele>394.76</ele>
        <time>2011-10-22T14:50:27Z</time>
      </trkpt>
      <trkpt lat="45.9754" lon="4.60708">
        <ele>403.41</ele>
        <time>2011-10-22T14:51:05Z</time>
      </trkpt>
      <trkpt lat="45.97513" lon="4.60683">
        <ele>404.85</ele>
        <time>2011-10-22T14:53:19Z</time>
      </trkpt>
      <trkpt lat="45.97539" lon="4.60627">
        <ele>406.29</ele>
        <time>2011-10-22T14:53:40Z</time>
      </trkpt>
      <trkpt lat="45.9755" lon="4.60562">
        <ele>407.74</ele>
        <time>2011-10-22T14:53:57Z</time>
      </trkpt>
      <trkpt lat="45.97555" lon="4.60495">
        <ele>411.58</ele>
        <time>2011-10-22T14:54:17Z</time>
      </trkpt>
      <trkpt lat="45.97554" lon="4.60426">
        <ele>417.35</ele>
        <time>2011-10-22T14:54:41Z</time>
      </trkpt>
      <trkpt lat="45.97554" lon="4.60361">
        <ele>424.08</ele>
        <time>2011-10-22T14:55:09Z</time>
      </trkpt>
      <trkpt lat="45.97545" lon="4.60296">
        <ele>430.81</ele>
        <time>2011-10-22T14:55:40Z</time>
      </trkpt>
      <trkpt lat="45.97522" lon="4.60238">
        <ele>438.02</ele>
        <time>2011-10-22T14:56:14Z</time>
      </trkpt>
      <trkpt lat="45.97496" lon="4.60186">
        <ele>446.67</ele>
        <time>2011-10-22T14:56:49Z</time>
      </trkpt>
      <trkpt lat="45.97479" lon="4.60159">
        <ele>453.4</ele>
        <time>2011-10-22T14:57:44Z</time>
      </trkpt>
      <trkpt lat="45.97436" lon="4.60187">
        <ele>459.17</ele>
        <time>2011-10-22T14:58:21Z</time>
      </trkpt>
      <trkpt lat="45.97396" lon="4.60192">
        <ele>467.34</ele>
        <time>2011-10-22T14:59:08Z</time>
      </trkpt>
      <trkpt lat="45.97362" lon="4.60152">
        <ele>479.35</ele>
        <time>2011-10-22T15:00:14Z</time>
      </trkpt>
      <trkpt lat="45.97384" lon="4.6009">
        <ele>488.97</ele>
        <time>2011-10-22T15:01:02Z</time>
      </trkpt>
      <trkpt lat="45.97401" lon="4.60024">
        <ele>499.54</ele>
        <time>2011-10-22T15:01:51Z</time>
      </trkpt>
      <trkpt lat="45.97369" lon="4.60006">
        <ele>509.64</ele>
        <time>2011-10-22T15:02:52Z</time>
      </trkpt>
      <trkpt lat="45.97349" lon="4.59971">
        <ele>510.12</ele>
        <time>2011-10-22T15:23:19Z</time>
      </trkpt>
      <trkpt lat="45.97325" lon="4.59914">
        <ele>508.67</ele>
        <time>2011-10-22T15:23:34Z</time>
      </trkpt>
      <trkpt lat="45.97299" lon="4.59854">
        <ele>507.71</ele>
        <time>2011-10-22T15:23:47Z</time>
      </trkpt>
      <trkpt lat="45.97263" lon="4.59806">
        <ele>507.23</ele>
        <time>2011-10-22T15:23:58Z</time>
      </trkpt>
      <trkpt lat="45.97244" lon="4.59742">
        <ele>511.08</ele>
        <time>2011-10-22T15:24:16Z</time>
      </trkpt>
      <trkpt lat="45.97214" lon="4.59687">
        <ele>514.44</ele>
        <time>2011-10-22T15:24:38Z</time>
      </trkpt>
      <trkpt lat="45.9718" lon="4.59639">
        <ele>514.92</ele>
        <time>2011-10-22T15:24:56Z</time>
      </trkpt>
      <trkpt lat="45.97141" lon="4.59615">
        <ele>513.48</ele>
        <time>2011-10-22T15:25:11Z</time>
      </trkpt>
      <trkpt lat="45.97097" lon="4.59634">
        <ele>510.6</ele>
        <time>2011-10-22T15:25:18Z</time>
      </trkpt>
      <trkpt lat="45.97048" lon="4.5964">
        <ele>511.08</ele>
        <time>2011-10-22T15:25:27Z</time>
      </trkpt>
      <trkpt lat="45.97008" lon="4.59668">
        <ele>513</ele>
        <time>2011-10-22T15:25:38Z</time>
      </trkpt>
      <trkpt lat="45.96984" lon="4.59723">
        <ele>513.48</ele>
        <time>2011-10-22T15:25:50Z</time>
      </trkpt>
      <trkpt lat="45.97016" lon="4.59771">
        <ele>511.08</ele>
        <time>2011-10-22T15:25:59Z</time>
      </trkpt>
      <trkpt lat="45.97023" lon="4.59828">
        <ele>511.56</ele>
        <time>2011-10-22T15:26:08Z</time>
      </trkpt>
      <trkpt lat="45.96993" lon="4.59885">
        <ele>509.64</ele>
        <time>2011-10-22T15:26:17Z</time>
      </trkpt>
      <trkpt lat="45.96967" lon="4.59936">
        <ele>509.16</ele>
        <time>2011-10-22T15:26:25Z</time>
      </trkpt>
      <trkpt lat="45.96939" lon="4.59989">
        <ele>508.19</ele>
        <time>2011-10-22T15:26:33Z</time>
      </trkpt>
      <trkpt lat="45.96909" lon="4.60043">
        <ele>506.75</ele>
        <time>2011-10-22T15:26:41Z</time>
      </trkpt>
      <trkpt lat="45.96877" lon="4.60095">
        <ele>507.71</ele>
        <time>2011-10-22T15:26:50Z</time>
      </trkpt>
      <trkpt lat="45.96842" lon="4.60145">
        <ele>510.12</ele>
        <time>2011-10-22T15:27:02Z</time>
      </trkpt>
      <trkpt lat="45.96811" lon="4.60197">
        <ele>512.52</ele>
        <time>2011-10-22T15:27:16Z</time>
      </trkpt>
      <trkpt lat="45.96778" lon="4.60252">
        <ele>513.48</ele>
        <time>2011-10-22T15:27:29Z</time>
      </trkpt>
      <trkpt lat="45.96748" lon="4.60307">
        <ele>512.04</ele>
        <time>2011-10-22T15:27:40Z</time>
      </trkpt>
      <trkpt lat="45.96714" lon="4.60361">
        <ele>509.64</ele>
        <time>2011-10-22T15:27:49Z</time>
      </trkpt>
      <trkpt lat="45.96682" lon="4.60419">
        <ele>503.87</ele>
        <time>2011-10-22T15:27:57Z</time>
      </trkpt>
      <trkpt lat="45.96654" lon="4.60472">
        <ele>497.14</ele>
        <time>2011-10-22T15:28:22Z</time>
      </trkpt>
      <trkpt lat="45.9661" lon="4.60507">
        <ele>487.05</ele>
        <time>2011-10-22T15:28:40Z</time>
      </trkpt>
      <trkpt lat="45.96566" lon="4.60486">
        <ele>480.32</ele>
        <time>2011-10-22T15:28:51Z</time>
      </trkpt>
      <trkpt lat="45.96527" lon="4.60437">
        <ele>477.43</ele>
        <time>2011-10-22T15:29:02Z</time>
      </trkpt>
      <trkpt lat="45.96496" lon="4.60382">
        <ele>474.07</ele>
        <time>2011-10-22T15:29:13Z</time>
      </trkpt>
      <trkpt lat="45.96462" lon="4.60339">
        <ele>465.9</ele>
        <time>2011-10-22T15:29:33Z</time>
      </trkpt>
      <trkpt lat="45.9644" lon="4.60275">
        <ele>460.61</ele>
        <time>2011-10-22T15:29:56Z</time>
      </trkpt>
      <trkpt lat="45.96381" lon="4.6027">
        <ele>458.69</ele>
        <time>2011-10-22T15:30:13Z</time>
      </trkpt>
      <trkpt lat="45.9633" lon="4.60279">
        <ele>458.69</ele>
        <time>2011-10-22T15:30:28Z</time>
      </trkpt>
      <trkpt lat="45.96298" lon="4.60323">
        <ele>451.48</ele>
        <time>2011-10-22T15:30:45Z</time>
      </trkpt>
      <trkpt lat="45.96254" lon="4.60299">
        <ele>445.23</ele>
        <time>2011-10-22T15:30:59Z</time>
      </trkpt>
      <trkpt lat="45.96215" lon="4.60313">
        <ele>436.1</ele>
        <time>2011-10-22T15:31:18Z</time>
      </trkpt>
      <trkpt lat="45.96204" lon="4.60372">
        <ele>426</ele>
        <time>2011-10-22T15:31:54Z</time>
      </trkpt>
      <trkpt lat="45.96175" lon="4.60417">
        <ele>424.56</ele>
        <time>2011-10-22T15:33:35Z</time>
      </trkpt>
      <trkpt lat="45.96155" lon="4.60478">
        <ele>421.68</ele>
        <time>2011-10-22T15:33:44Z</time>
      </trkpt>
      <trkpt lat="45.96138" lon="4.60547">
        <ele>419.75</ele>
        <time>2011-10-22T15:33:52Z</time>
      </trkpt>
      <trkpt lat="45.96114" lon="4.60604">
        <ele>421.19</ele>
        <time>2011-10-22T15:34:02Z</time>
      </trkpt>
      <trkpt lat="45.96086" lon="4.60657">
        <ele>423.6</ele>
        <time>2011-10-22T15:34:13Z</time>
      </trkpt>
      <trkpt lat="45.96057" lon="4.60708">
        <ele>425.52</ele>
        <time>2011-10-22T15:34:25Z</time>
      </trkpt>
      <trkpt lat="45.96036" lon="4.60765">
        <ele>426.48</ele>
        <time>2011-10-22T15:34:37Z</time>
      </trkpt>
      <trkpt lat="45.96015" lon="4.60822">
        <ele>428.4</ele>
        <time>2011-10-22T15:34:49Z</time>
      </trkpt>
      <trkpt lat="45.95975" lon="4.60852">
        <ele>430.33</ele>
        <time>2011-10-22T15:35:02Z</time>
      </trkpt>
      <trkpt lat="45.9593" lon="4.60842">
        <ele>431.77</ele>
        <time>2011-10-22T15:35:17Z</time>
      </trkpt>
      <trkpt lat="45.95888" lon="4.60814">
        <ele>433.69</ele>
        <time>2011-10-22T15:35:32Z</time>
      </trkpt>
      <trkpt lat="45.95843" lon="4.60805">
        <ele>434.17</ele>
        <time>2011-10-22T15:35:46Z</time>
      </trkpt>
      <trkpt lat="45.95797" lon="4.60795">
        <ele>434.17</ele>
        <time>2011-10-22T15:35:58Z</time>
      </trkpt>
      <trkpt lat="45.95752" lon="4.60787">
        <ele>434.17</ele>
        <time>2011-10-22T15:36:09Z</time>
      </trkpt>
      <trkpt lat="45.95706" lon="4.6078">
        <ele>433.69</ele>
        <time>2011-10-22T15:36:20Z</time>
      </trkpt>
      <trkpt lat="45.95661" lon="4.60775">
        <ele>434.65</ele>
        <time>2011-10-22T15:36:31Z</time>
      </trkpt>
      <trkpt lat="45.95614" lon="4.60771">
        <ele>435.13</ele>
        <time>2011-10-22T15:36:42Z</time>
      </trkpt>
      <trkpt lat="45.95569" lon="4.6077">
        <ele>435.61</ele>
        <time>2011-10-22T15:36:54Z</time>
      </trkpt>
      <trkpt lat="45.95525" lon="4.6079">
        <ele>436.1</ele>
        <time>2011-10-22T15:37:06Z</time>
      </trkpt>
      <trkpt lat="45.95495" lon="4.60839">
        <ele>435.61</ele>
        <time>2011-10-22T15:37:17Z</time>
      </trkpt>
      <trkpt lat="45.95475" lon="4.60897">
        <ele>435.13</ele>
        <time>2011-10-22T15:37:28Z</time>
      </trkpt>
      <trkpt lat="45.95465" lon="4.60961">
        <ele>434.17</ele>
        <time>2011-10-22T15:37:39Z</time>
      </trkpt>
      <trkpt lat="45.9547" lon="4.61028">
        <ele>433.21</ele>
        <time>2011-10-22T15:37:49Z</time>
      </trkpt>
      <trkpt lat="45.95483" lon="4.61096">
        <ele>433.21</ele>
        <time>2011-10-22T15:37:59Z</time>
      </trkpt>
      <trkpt lat="45.95484" lon="4.61167">
        <ele>432.73</ele>
        <time>2011-10-22T15:38:09Z</time>
      </trkpt>
      <trkpt lat="45.9549" lon="4.61236">
        <ele>433.21</ele>
        <time>2011-10-22T15:38:19Z</time>
      </trkpt>
      <trkpt lat="45.95515" lon="4.61295">
        <ele>432.73</ele>
        <time>2011-10-22T15:38:29Z</time>
      </trkpt>
      <trkpt lat="45.95538" lon="4.61351">
        <ele>436.58</ele>
        <time>2011-10-22T15:38:44Z</time>
      </trkpt>
      <trkpt lat="45.95538" lon="4.61413">
        <ele>437.54</ele>
        <time>2011-10-22T15:38:58Z</time>
      </trkpt>
      <trkpt lat="45.95501" lon="4.61453">
        <ele>441.38</ele>
        <time>2011-10-22T15:39:17Z</time>
      </trkpt>
      <trkpt lat="45.95458" lon="4.6148">
        <ele>443.79</ele>
        <time>2011-10-22T15:39:35Z</time>
      </trkpt>
      <trkpt lat="45.95416" lon="4.61502">
        <ele>445.23</ele>
        <time>2011-10-22T15:39:50Z</time>
      </trkpt>
      <trkpt lat="45.95371" lon="4.61522">
        <ele>444.75</ele>
        <time>2011-10-22T15:40:01Z</time>
      </trkpt>
      <trkpt lat="45.95325" lon="4.61538">
        <ele>445.23</ele>
        <time>2011-10-22T15:40:12Z</time>
      </trkpt>
      <trkpt lat="45.95279" lon="4.61549">
        <ele>447.15</ele>
        <time>2011-10-22T15:40:25Z</time>
      </trkpt>
      <trkpt lat="45.95232" lon="4.61564">
        <ele>448.59</ele>
        <time>2011-10-22T15:40:39Z</time>
      </trkpt>
      <trkpt lat="45.95188" lon="4.61583">
        <ele>447.15</ele>
        <time>2011-10-22T15:40:49Z</time>
      </trkpt>
      <trkpt lat="45.95141" lon="4.61583">
        <ele>450.03</ele>
        <time>2011-10-22T15:41:04Z</time>
      </trkpt>
      <trkpt lat="45.95098" lon="4.61617">
        <ele>453.88</ele>
        <time>2011-10-22T15:41:23Z</time>
      </trkpt>
      <trkpt lat="45.9505" lon="4.61663">
        <ele>459.17</ele>
        <time>2011-10-22T15:41:50Z</time>
      </trkpt>
      <trkpt lat="45.94998" lon="4.61678">
        <ele>467.34</ele>
        <time>2011-10-22T15:42:26Z</time>
      </trkpt>
      <trkpt lat="45.94945" lon="4.61674">
        <ele>471.66</ele>
        <time>2011-10-22T15:42:54Z</time>
      </trkpt>
      <trkpt lat="45.94894" lon="4.6165">
        <ele>473.11</ele>
        <time>2011-10-22T15:43:13Z</time>
      </trkpt>
      <trkpt lat="45.94852" lon="4.6162">
        <ele>476.47</ele>
        <time>2011-10-22T15:43:30Z</time>
      </trkpt>
      <trkpt lat="45.94804" lon="4.6161">
        <ele>474.55</ele>
        <time>2011-10-22T15:43:41Z</time>
      </trkpt>
      <trkpt lat="45.94755" lon="4.61624">
        <ele>473.59</ele>
        <time>2011-10-22T15:43:52Z</time>
      </trkpt>
      <trkpt lat="45.94707" lon="4.61644">
        <ele>474.07</ele>
        <time>2011-10-22T15:44:03Z</time>
      </trkpt>
      <trkpt lat="45.94656" lon="4.61661">
        <ele>474.55</ele>
        <time>2011-10-22T15:44:15Z</time>
      </trkpt>
      <trkpt lat="45.946" lon="4.61683">
        <ele>475.51</ele>
        <time>2011-10-22T15:44:27Z</time>
      </trkpt>
      <trkpt lat="45.94554" lon="4.61705">
        <ele>477.43</ele>
        <time>2011-10-22T15:44:40Z</time>
      </trkpt>
      <trkpt lat="45.94512" lon="4.6173">
        <ele>480.8</ele>
        <time>2011-10-22T15:44:56Z</time>
      </trkpt>
      <trkpt lat="45.94467" lon="4.61747">
        <ele>482.24</ele>
        <time>2011-10-22T15:45:12Z</time>
      </trkpt>
      <trkpt lat="45.94419" lon="4.61741">
        <ele>479.84</ele>
        <time>2011-10-22T15:45:24Z</time>
      </trkpt>
      <trkpt lat="45.94371" lon="4.61737">
        <ele>477.43</ele>
        <time>2011-10-22T15:45:31Z</time>
      </trkpt>
      <trkpt lat="45.94326" lon="4.61747">
        <ele>471.66</ele>
        <time>2011-10-22T15:45:37Z</time>
      </trkpt>
      <trkpt lat="45.94304" lon="4.618">
        <ele>465.9</ele>
        <time>2011-10-22T15:45:44Z</time>
      </trkpt>
      <trkpt lat="45.94255" lon="4.61796">
        <ele>463.97</ele>
        <time>2011-10-22T15:45:52Z</time>
      </trkpt>
      <trkpt lat="45.94209" lon="4.6179">
        <ele>463.49</ele>
        <time>2011-10-22T15:45:59Z</time>
      </trkpt>
      <trkpt lat="45.94158" lon="4.61784">
        <ele>463.49</ele>
        <time>2011-10-22T15:46:07Z</time>
      </trkpt>
      <trkpt lat="45.9412" lon="4.61812">
        <ele>461.09</ele>
        <time>2011-10-22T15:46:16Z</time>
      </trkpt>
      <trkpt lat="45.94075" lon="4.61792">
        <ele>462.05</ele>
        <time>2011-10-22T15:46:26Z</time>
      </trkpt>
      <trkpt lat="45.94037" lon="4.61747">
        <ele>464.45</ele>
        <time>2011-10-22T15:46:40Z</time>
      </trkpt>
      <trkpt lat="45.94004" lon="4.61694">
        <ele>462.05</ele>
        <time>2011-10-22T15:46:51Z</time>
      </trkpt>
      <trkpt lat="45.93974" lon="4.61637">
        <ele>456.28</ele>
        <time>2011-10-22T15:47:00Z</time>
      </trkpt>
    </trkseg>
  </trk>
</gpx>